Bonfield, IL (60913)

1:12 PM CST on January 28, 2015 (GMT -0600)
Bonfield,Illinois | Change Station
CLOSE
Current Station
Personal Weather Station
Location: Bonfield, IL
Elevation: 614 ft
Nearby Weather Stations

Elev 614 ft 41.12 °N, 88.13 °W | Updated 60 seconds ago

Clear
Clear
33.1 °F
Feels Like 23 °F
N
15.0
Wind Variable Wind from SSE
Gusts 18.0 mph

Today
High -- | Low -- °F
--% Chance of Precip.
Yesterday
High -- | Low -- °F
Precip. -- in
7:07 AM 5:03 PM
Waxing Gibbous, 67% visible
Pressure 30.18 in
Visibility 10.0 miles
Clouds Clear
Windchill 23 °F
Dew Point 26 °F
Humidity 76%
Rainfall 0.00 in
Snow Depth Not available.
UV 3 out of 12
Pollen .10 out of 12
Air Quality Not available.
Flu Activity Not available.
METAR KIKK 281855Z AUTO 14011KT 10SM CLR 01/M04 A3018 RMK AO2 T00091041

More Conditions Fewer Conditions

Pressure 30.18 in
Visibility 10.0 miles
Clouds Clear
Windchill 23 °F
Dew Point 26 °F
Humidity 76%
Rainfall 0.00 in
Snow Depth Not available.
UV 3 out of 12
Pollen .10 out of 12
Air Quality Not available.
Flu Activity Not available.
METAR KIKK 281855Z AUTO 14011KT 10SM CLR 01/M04 A3018 RMK AO2 T00091041

More Conditions Fewer Conditions

10-Day Weather Forecast

Almanac

Astronomy

Jan. 28, 2015 Rise Set
Actual Time
Civil Twilight
Nautical Twilight
Astronomical Twilight
Moon
Length of Visible Light
Length of Day
Tomorrow will be .
, % of the Moon is Illuminated

Today's Extremes

State Highs State Lows

Community

WunderPhotos

Upload Photos

1,791,245 photos uploaded!

WunderBlogs® & News

Nearby

Air Quality

  Air Quality AQ Index Pollutant
Not available.

Snow Depth

Station Depth Elevation

Earthquake Activity

City Distance Mag. Time & Date
Minimum magnitude displayed is 2.5.

Coastal Water Temperatures

Place Temperature

Nearby Weather Stations